Time;durP1;ratioP1;P1;durP2;ratioP2;P2;SDS_P1;SDS_P2;PMS_P1;PMS_P2;Temp;Humidity;BMP_temperature;BMP_pressure;BME280_temperature;BME280_humidity;BME280_pressure;Samples;Min_cycle;Max_cycle;Signal;HPM_P1;HPM_P2
2022/12/21 00:00:13;;;;;;;1.97;1.83;;;;;;;;;;4997551;28;20240;-83
2022/12/21 00:02:42;;;;;;;15.97;5.77;;;;;;;;;;4997773;28;20232;-83
2022/12/21 00:08:04;;;;;;;1.00;1.00;;;;;;;;;;5541782;22;20239;-85
2022/12/21 00:10:33;;;;;;;4.20;2.07;;;;;;;;;;5030129;28;20187;-86
2022/12/21 00:13:01;;;;;;;4.57;2.70;;;;;;;;;;5036253;28;20216;-85
2022/12/21 00:15:30;;;;;;;15.87;4.90;;;;;;;;;;5037547;28;20199;-86
2022/12/21 00:17:58;;;;;;;15.93;5.10;;;;;;;;;;5037594;28;20290;-86
2022/12/21 00:20:28;;;;;;;7.20;4.20;;;;;;;;;;5036947;28;20261;-86
2022/12/21 00:22:56;;;;;;;11.30;3.80;;;;;;;;;;5025592;28;20210;-86
2022/12/21 00:25:24;;;;;;;8.87;4.67;;;;;;;;;;5037265;28;20248;-86
2022/12/21 00:27:53;;;;;;;18.10;6.57;;;;;;;;;;5031995;28;20234;-86
2022/12/21 00:30:21;;;;;;;19.10;6.63;;;;;;;;;;5036216;28;20257;-86
2022/12/21 00:32:49;;;;;;;19.90;6.77;;;;;;;;;;5037303;28;20194;-86
2022/12/21 00:35:18;;;;;;;18.53;7.80;;;;;;;;;;5034001;28;20186;-86
2022/12/21 00:37:47;;;;;;;22.40;7.50;;;;;;;;;;5023828;28;20245;-86
2022/12/21 00:40:16;;;;;;;7.00;3.67;;;;;;;;;;5023226;28;20203;-86
2022/12/21 00:42:44;;;;;;;18.53;5.80;;;;;;;;;;5037116;28;20195;-85
2022/12/21 00:45:13;;;;;;;7.70;3.67;;;;;;;;;;5037154;28;20209;-86
2022/12/21 00:47:41;;;;;;;16.93;5.33;;;;;;;;;;5023985;28;20195;-86
2022/12/21 00:50:10;;;;;;;7.07;3.53;;;;;;;;;;5054087;28;20198;-86
2022/12/21 00:52:38;;;;;;;9.80;5.20;;;;;;;;;;5036842;28;20219;-86
2022/12/21 00:55:08;;;;;;;9.63;1.57;;;;;;;;;;5036939;28;20259;-86
2022/12/21 00:57:37;;;;;;;15.57;4.20;;;;;;;;;;5036770;28;20289;-86
2022/12/21 01:00:05;;;;;;;22.60;5.03;;;;;;;;;;5036539;28;20206;-86
2022/12/21 01:02:34;;;;;;;9.37;3.50;;;;;;;;;;5023178;28;20321;-86
2022/12/21 01:05:02;;;;;;;10.53;4.70;;;;;;;;;;5025825;28;20268;-86
2022/12/21 01:07:31;;;;;;;12.87;7.40;;;;;;;;;;5034107;28;20225;-86
2022/12/21 01:12:45;;;;;;;19.13;7.73;;;;;;;;;;5606730;22;20231;-85
2022/12/21 01:15:13;;;;;;;10.60;7.27;;;;;;;;;;5001243;28;20248;-86
2022/12/21 01:17:42;;;;;;;15.33;6.77;;;;;;;;;;4998977;28;20196;-86
2022/12/21 01:20:10;;;;;;;8.50;5.70;;;;;;;;;;4986210;28;20223;-85
2022/12/21 01:22:39;;;;;;;4.30;2.30;;;;;;;;;;5009859;28;20228;-86
2022/12/21 01:25:08;;;;;;;4.47;1.73;;;;;;;;;;5022366;28;20262;-85
2022/12/21 01:27:36;;;;;;;21.23;4.20;;;;;;;;;;5017257;28;20209;-86
2022/12/21 01:30:07;;;;;;;0.97;0.97;;;;;;;;;;5004587;28;20228;-86
2022/12/21 01:32:35;;;;;;;0.60;0.60;;;;;;;;;;5004693;28;20243;-85
2022/12/21 01:35:05;;;;;;;1.63;1.53;;;;;;;;;;4990451;28;20212;-86
2022/12/21 01:37:34;;;;;;;13.90;4.10;;;;;;;;;;5009917;28;20215;-86
2022/12/21 01:40:02;;;;;;;1.83;1.73;;;;;;;;;;5006243;28;20199;-86
2022/12/21 01:42:30;;;;;;;1.03;1.03;;;;;;;;;;4997502;28;20212;-86
2022/12/21 01:45:02;;;;;;;0.60;0.60;;;;;;;;;;5012551;28;20298;-86
2022/12/21 01:47:36;;;;;;;0.60;0.60;;;;;;;;;;4999595;28;20215;-86
2022/12/21 01:50:05;;;;;;;6.13;3.40;;;;;;;;;;4988368;28;20282;-86
2022/12/21 01:52:34;;;;;;;16.57;3.07;;;;;;;;;;4999449;28;20235;-85
2022/12/21 01:55:07;;;;;;;6.50;4.97;;;;;;;;;;5004695;28;20331;-86
2022/12/21 01:57:35;;;;;;;3.03;2.83;;;;;;;;;;5007055;28;20224;-86
2022/12/21 02:00:08;;;;;;;0.70;0.70;;;;;;;;;;4990108;28;20207;-86
2022/12/21 02:02:39;;;;;;;0.60;0.60;;;;;;;;;;5004880;28;20208;-86
2022/12/21 02:05:13;;;;;;;0.60;0.60;;;;;;;;;;5004341;28;20203;-85
2022/12/21 02:07:42;;;;;;;0.70;0.70;;;;;;;;;;4994163;28;20212;-86
2022/12/21 02:10:10;;;;;;;2.77;0.97;;;;;;;;;;4993110;28;20203;-86
2022/12/21 02:12:40;;;;;;;1.30;1.30;;;;;;;;;;4982411;28;20217;-86
2022/12/21 02:15:09;;;;;;;5.53;1.17;;;;;;;;;;4942976;28;20205;-85
2022/12/21 02:17:43;;;;;;;10.50;1.67;;;;;;;;;;4953544;29;20229;-86
2022/12/21 02:20:30;;;;;;;0.70;0.70;;;;;;;;;;4952145;28;20271;-85
2022/12/21 02:23:13;;;;;;;52.57;6.87;;;;;;;;;;4965135;28;20210;-86
2022/12/21 02:25:48;;;;;;;115.87;12.57;;;;;;;;;;4984766;28;20225;-86
2022/12/21 02:28:27;;;;;;;58.87;9.73;;;;;;;;;;4958032;28;20213;-85
2022/12/21 02:31:08;;;;;;;39.37;8.67;;;;;;;;;;4967361;28;20193;-86
2022/12/21 02:33:45;;;;;;;34.40;12.33;;;;;;;;;;4968357;28;20201;-86
2022/12/21 02:36:20;;;;;;;29.70;10.40;;;;;;;;;;4970246;28;20205;-86
2022/12/21 02:38:52;;;;;;;31.87;6.87;;;;;;;;;;4948045;28;20300;-85
2022/12/21 02:41:27;;;;;;;47.83;6.80;;;;;;;;;;4970954;28;20217;-85
2022/12/21 02:44:15;;;;;;;256.10;22.60;;;;;;;;;;4957778;28;20229;-86
2022/12/21 02:46:50;;;;;;;278.43;24.80;;;;;;;;;;4976854;28;20252;-86
2022/12/21 02:49:21;;;;;;;356.40;27.77;;;;;;;;;;4964295;28;20268;-85
2022/12/21 02:51:53;;;;;;;340.17;27.03;;;;;;;;;;4959446;28;20292;-85
2022/12/21 02:54:22;;;;;;;242.90;27.60;;;;;;;;;;4965807;28;20233;-86
2022/12/21 02:56:50;;;;;;;165.43;14.70;;;;;;;;;;4959236;28;20272;-86
2022/12/21 02:59:20;;;;;;;273.57;22.93;;;;;;;;;;4958199;28;20268;-85
2022/12/21 03:02:06;;;;;;;207.83;19.33;;;;;;;;;;4965574;28;20218;-86
2022/12/21 03:04:45;;;;;;;269.43;22.13;;;;;;;;;;4967108;28;20209;-86
2022/12/21 03:07:24;;;;;;;276.17;24.07;;;;;;;;;;4972920;28;20227;-86
2022/12/21 03:09:57;;;;;;;280.83;24.97;;;;;;;;;;4966975;28;20192;-86
2022/12/21 03:12:31;;;;;;;295.63;25.73;;;;;;;;;;4976498;28;20217;-85
2022/12/21 03:15:03;;;;;;;167.13;12.37;;;;;;;;;;4986704;28;20289;-86
2022/12/21 03:17:41;;;;;;;169.50;13.33;;;;;;;;;;4978457;28;20233;-86
2022/12/21 03:20:12;;;;;;;151.30;10.33;;;;;;;;;;4988624;28;20204;-86
2022/12/21 03:22:44;;;;;;;182.93;13.00;;;;;;;;;;4976266;28;20217;-86
2022/12/21 03:25:14;;;;;;;230.37;24.20;;;;;;;;;;4961415;28;20260;-86
2022/12/21 03:27:45;;;;;;;173.90;19.40;;;;;;;;;;4984780;28;20204;-86
2022/12/21 03:30:15;;;;;;;157.33;17.30;;;;;;;;;;4995860;28;20208;-86
2022/12/21 03:32:47;;;;;;;213.93;22.20;;;;;;;;;;4995607;28;20196;-86
2022/12/21 03:35:18;;;;;;;182.53;18.40;;;;;;;;;;4990638;28;20201;-86
2022/12/21 03:37:49;;;;;;;153.60;17.43;;;;;;;;;;4977285;28;20197;-86
2022/12/21 03:40:22;;;;;;;27.37;4.43;;;;;;;;;;4988191;28;20204;-86
2022/12/21 03:42:55;;;;;;;1.80;1.80;;;;;;;;;;4988772;28;20214;-85
2022/12/21 03:45:25;;;;;;;0.70;0.70;;;;;;;;;;4989155;28;20208;-85
2022/12/21 03:47:56;;;;;;;1.87;1.77;;;;;;;;;;4983933;28;20267;-86
2022/12/21 03:50:26;;;;;;;1.20;1.20;;;;;;;;;;4976683;28;20209;-86
2022/12/21 03:52:56;;;;;;;1.10;1.10;;;;;;;;;;4991647;28;20267;-86
2022/12/21 03:55:28;;;;;;;1.53;1.53;;;;;;;;;;4978935;28;20193;-86
2022/12/21 03:57:57;;;;;;;148.30;12.17;;;;;;;;;;4995562;28;20251;-86
2022/12/21 04:00:26;;;;;;;42.03;6.93;;;;;;;;;;4994030;28;20201;-86
2022/12/21 04:02:58;;;;;;;109.57;10.97;;;;;;;;;;5000129;28;20212;-86
2022/12/21 04:05:30;;;;;;;145.30;13.63;;;;;;;;;;4988403;28;20197;-86
2022/12/21 04:07:58;;;;;;;181.97;17.20;;;;;;;;;;4975848;28;20208;-86
2022/12/21 04:10:27;;;;;;;175.90;18.97;;;;;;;;;;4976948;28;20201;-86
2022/12/21 04:12:55;;;;;;;150.47;13.27;;;;;;;;;;4983376;28;20229;-86
2022/12/21 04:15:24;;;;;;;154.07;13.83;;;;;;;;;;5007953;28;20235;-86
2022/12/21 04:17:53;;;;;;;29.63;4.23;;;;;;;;;;4983828;28;20201;-86
2022/12/21 04:20:23;;;;;;;115.60;12.40;;;;;;;;;;5011733;28;20223;-86
2022/12/21 04:28:25;;;;;;;37.40;4.20;;;;;;;;;;4982891;28;20205;-86
2022/12/21 04:31:13;;;;;;;0.60;0.60;;;;;;;;;;4981884;28;20210;-86
2022/12/21 04:33:41;;;;;;;113.80;10.83;;;;;;;;;;5002747;28;20200;-86
2022/12/21 04:38:57;;;;;;;23.53;4.97;;;;;;;;;;4983789;28;20291;-86
2022/12/21 04:41:25;;;;;;;43.77;4.00;;;;;;;;;;4978087;28;20197;-86
2022/12/21 04:43:54;;;;;;;63.70;9.97;;;;;;;;;;4992787;28;20310;-86
2022/12/21 04:46:22;;;;;;;100.03;12.23;;;;;;;;;;4988477;28;20212;-86
2022/12/21 04:48:50;;;;;;;85.37;13.97;;;;;;;;;;4997407;28;20201;-86
2022/12/21 04:51:21;;;;;;;83.10;9.90;;;;;;;;;;4987470;28;20196;-86
2022/12/21 04:53:50;;;;;;;6.53;4.20;;;;;;;;;;4984539;28;20226;-86
2022/12/21 04:56:19;;;;;;;23.13;7.40;;;;;;;;;;5003312;28;20227;-86
2022/12/21 04:58:47;;;;;;;10.50;7.00;;;;;;;;;;4995146;28;20341;-86
2022/12/21 05:01:17;;;;;;;15.07;7.13;;;;;;;;;;5004001;28;20247;-86
2022/12/21 05:03:46;;;;;;;9.00;4.80;;;;;;;;;;4993147;28;20232;-86
2022/12/21 05:06:15;;;;;;;6.97;4.93;;;;;;;;;;5001274;28;20207;-86
2022/12/21 05:08:45;;;;;;;10.97;5.57;;;;;;;;;;4975008;28;20200;-86
2022/12/21 05:11:14;;;;;;;21.83;7.40;;;;;;;;;;4970576;28;20250;-86
2022/12/21 05:13:43;;;;;;;10.40;5.67;;;;;;;;;;4983529;28;20235;-86
2022/12/21 05:16:12;;;;;;;6.20;3.37;;;;;;;;;;4999777;28;20207;-86
2022/12/21 05:18:41;;;;;;;19.17;9.67;;;;;;;;;;4969257;28;20196;-86
2022/12/21 05:21:09;;;;;;;16.13;8.60;;;;;;;;;;4993652;28;20204;-86
2022/12/21 05:23:38;;;;;;;18.50;9.23;;;;;;;;;;4994706;28;20220;-86
2022/12/21 05:26:08;;;;;;;18.17;8.60;;;;;;;;;;4991515;28;20204;-86
2022/12/21 05:28:43;;;;;;;17.20;7.77;;;;;;;;;;5009172;28;20246;-86
2022/12/21 05:31:12;;;;;;;14.87;7.77;;;;;;;;;;4997017;28;20188;-86
2022/12/21 05:33:41;;;;;;;16.47;8.50;;;;;;;;;;4993390;28;20207;-86
2022/12/21 05:36:10;;;;;;;17.93;7.70;;;;;;;;;;4992601;28;20204;-86
2022/12/21 05:38:39;;;;;;;17.90;8.57;;;;;;;;;;4988773;28;20283;-86
2022/12/21 05:41:09;;;;;;;19.87;9.40;;;;;;;;;;4999480;28;20202;-86
2022/12/21 05:43:37;;;;;;;20.50;9.77;;;;;;;;;;5012072;28;20215;-86
2022/12/21 05:46:07;;;;;;;8.00;5.20;;;;;;;;;;4995263;28;20200;-86
2022/12/21 05:48:36;;;;;;;13.23;6.50;;;;;;;;;;4977283;28;20196;-82
2022/12/21 05:51:08;;;;;;;12.50;8.23;;;;;;;;;;4993640;28;20215;-86
2022/12/21 05:53:37;;;;;;;15.87;8.57;;;;;;;;;;5005135;28;20226;-86
2022/12/21 05:56:06;;;;;;;13.37;6.67;;;;;;;;;;5001267;28;20208;-86
2022/12/21 05:58:36;;;;;;;21.47;9.83;;;;;;;;;;4998574;28;20192;-86
2022/12/21 06:01:05;;;;;;;16.50;9.13;;;;;;;;;;4986341;28;20262;-86
2022/12/21 06:03:33;;;;;;;7.33;4.63;;;;;;;;;;4991316;28;20230;-86
2022/12/21 06:06:03;;;;;;;15.10;9.30;;;;;;;;;;4986924;28;20207;-86
2022/12/21 06:08:32;;;;;;;7.87;5.73;;;;;;;;;;4977045;28;20247;-86
2022/12/21 06:11:04;;;;;;;16.23;9.37;;;;;;;;;;4976893;28;20215;-86
2022/12/21 06:13:33;;;;;;;29.43;8.80;;;;;;;;;;4976805;28;20298;-86
2022/12/21 06:16:12;;;;;;;16.47;8.53;;;;;;;;;;4988597;28;20212;-86
2022/12/21 06:18:41;;;;;;;16.80;6.07;;;;;;;;;;4978510;28;20192;-86
2022/12/21 06:21:11;;;;;;;25.80;13.50;;;;;;;;;;5008599;28;20204;-86
2022/12/21 06:23:40;;;;;;;28.63;15.23;;;;;;;;;;4988811;28;20215;-86
2022/12/21 06:26:09;;;;;;;16.40;8.33;;;;;;;;;;5006887;28;20200;-86
2022/12/21 06:28:37;;;;;;;5.03;4.10;;;;;;;;;;4977048;28;20208;-86
2022/12/21 06:31:07;;;;;;;17.17;10.33;;;;;;;;;;4992984;28;20254;-86
2022/12/21 06:33:38;;;;;;;27.07;14.23;;;;;;;;;;4985364;28;20203;-86
2022/12/21 06:36:07;;;;;;;19.93;10.80;;;;;;;;;;5003073;28;20212;-86
2022/12/21 06:38:35;;;;;;;34.60;15.20;;;;;;;;;;4996401;28;20203;-86
2022/12/21 06:41:05;;;;;;;28.33;13.60;;;;;;;;;;4982910;28;20211;-86
2022/12/21 06:43:34;;;;;;;22.70;12.90;;;;;;;;;;4997979;28;20213;-86
2022/12/21 06:46:03;;;;;;;22.73;10.33;;;;;;;;;;4976959;28;20208;-86
2022/12/21 06:48:34;;;;;;;14.17;9.30;;;;;;;;;;4985238;28;20217;-89
2022/12/21 06:51:05;;;;;;;11.93;7.23;;;;;;;;;;4988824;28;20231;-87
2022/12/21 06:53:34;;;;;;;17.70;9.10;;;;;;;;;;4975269;28;20212;-86
2022/12/21 06:56:04;;;;;;;19.87;10.53;;;;;;;;;;4977123;28;20197;-86
2022/12/21 06:58:36;;;;;;;26.20;11.67;;;;;;;;;;5007229;28;20204;-86
2022/12/21 07:01:05;;;;;;;21.47;11.13;;;;;;;;;;4986171;28;20204;-87
2022/12/21 07:03:34;;;;;;;31.33;14.90;;;;;;;;;;4979745;28;20209;-87
2022/12/21 07:06:12;;;;;;;21.37;12.13;;;;;;;;;;4987242;28;20227;-86
2022/12/21 07:08:41;;;;;;;27.13;14.73;;;;;;;;;;4993644;28;20239;-86
2022/12/21 07:11:10;;;;;;;33.77;16.87;;;;;;;;;;4979790;28;20204;-86
2022/12/21 07:13:39;;;;;;;28.90;18.00;;;;;;;;;;4993860;28;20236;-83
2022/12/21 07:16:08;;;;;;;29.60;16.20;;;;;;;;;;4995451;28;20204;-83
2022/12/21 07:18:37;;;;;;;32.53;18.40;;;;;;;;;;4995230;28;20211;-83
2022/12/21 07:21:07;;;;;;;34.83;18.57;;;;;;;;;;4995419;28;20271;-83
2022/12/21 07:23:38;;;;;;;28.33;16.23;;;;;;;;;;4970566;28;20208;-83
2022/12/21 07:26:06;;;;;;;30.67;17.77;;;;;;;;;;4996352;28;20204;-83
2022/12/21 07:28:37;;;;;;;27.83;16.07;;;;;;;;;;4995366;28;20296;-84
2022/12/21 07:31:06;;;;;;;32.73;13.10;;;;;;;;;;4993370;28;20231;-83
2022/12/21 07:33:34;;;;;;;37.27;19.70;;;;;;;;;;4995670;28;20251;-83
2022/12/21 07:36:04;;;;;;;31.93;15.93;;;;;;;;;;5008468;28;20205;-82
2022/12/21 07:38:33;;;;;;;35.13;21.27;;;;;;;;;;4994954;28;20204;-83
2022/12/21 07:41:04;;;;;;;26.40;14.50;;;;;;;;;;4992055;28;20201;-83
2022/12/21 07:43:32;;;;;;;40.23;21.70;;;;;;;;;;4975749;28;20196;-83
2022/12/21 07:46:02;;;;;;;29.93;14.57;;;;;;;;;;4980816;28;20220;-83
2022/12/21 07:48:30;;;;;;;49.93;26.87;;;;;;;;;;4993668;28;20200;-84
2022/12/21 07:50:58;;;;;;;40.70;21.23;;;;;;;;;;4981927;28;20204;-84
2022/12/21 07:53:27;;;;;;;41.93;22.37;;;;;;;;;;4983280;28;20209;-83
2022/12/21 07:56:00;;;;;;;31.50;15.33;;;;;;;;;;4993082;28;20196;-83
2022/12/21 07:58:32;;;;;;;33.30;15.33;;;;;;;;;;4993599;28;20271;-84
2022/12/21 08:01:04;;;;;;;50.33;20.37;;;;;;;;;;5010454;28;20344;-84
2022/12/21 08:03:33;;;;;;;87.80;32.27;;;;;;;;;;5010733;28;20216;-83
2022/12/21 08:06:02;;;;;;;97.70;27.50;;;;;;;;;;5001576;28;20229;-84
2022/12/21 08:08:30;;;;;;;97.73;25.10;;;;;;;;;;4991681;28;20207;-84
2022/12/21 08:10:59;;;;;;;98.43;28.30;;;;;;;;;;4994556;28;20192;-83
2022/12/21 08:13:27;;;;;;;184.97;42.83;;;;;;;;;;5000819;28;20243;-83
2022/12/21 08:16:01;;;;;;;155.60;31.90;;;;;;;;;;5015142;28;20215;-83
2022/12/21 08:18:30;;;;;;;171.27;42.17;;;;;;;;;;5014602;28;20200;-84
2022/12/21 08:20:58;;;;;;;239.37;48.37;;;;;;;;;;5014590;28;20207;-83
2022/12/21 08:23:27;;;;;;;183.17;45.57;;;;;;;;;;4984578;28;20258;-83
2022/12/21 08:25:55;;;;;;;186.73;48.07;;;;;;;;;;4996632;28;20215;-84
2022/12/21 08:28:24;;;;;;;193.50;55.63;;;;;;;;;;5001195;28;20212;-84
2022/12/21 08:30:52;;;;;;;92.33;25.90;;;;;;;;;;4996578;28;20204;-84
2022/12/21 08:33:22;;;;;;;92.07;30.93;;;;;;;;;;5001882;28;20203;-83
2022/12/21 08:35:50;;;;;;;105.97;40.87;;;;;;;;;;5014437;28;20204;-83
2022/12/21 08:38:18;;;;;;;108.90;39.23;;;;;;;;;;5005496;28;20212;-84
2022/12/21 08:41:07;;;;;;;126.17;50.10;;;;;;;;;;5006858;28;20296;-84
2022/12/21 08:43:36;;;;;;;103.47;41.20;;;;;;;;;;5005846;28;20239;-84
2022/12/21 08:46:05;;;;;;;126.47;48.27;;;;;;;;;;5014492;28;20247;-84
2022/12/21 08:48:35;;;;;;;130.23;50.10;;;;;;;;;;4997276;28;20214;-84
2022/12/21 08:51:04;;;;;;;131.13;54.97;;;;;;;;;;5006908;28;20212;-84
2022/12/21 08:53:33;;;;;;;115.90;48.50;;;;;;;;;;4993601;28;20204;-84
2022/12/21 08:56:05;;;;;;;132.70;48.03;;;;;;;;;;4970819;28;20204;-84
2022/12/21 08:58:34;;;;;;;162.50;62.23;;;;;;;;;;4971101;28;20197;-83
2022/12/21 09:01:02;;;;;;;92.87;27.37;;;;;;;;;;4990347;28;20235;-84
2022/12/21 09:03:31;;;;;;;116.27;41.43;;;;;;;;;;4984961;28;20288;-84
2022/12/21 09:06:03;;;;;;;123.73;44.57;;;;;;;;;;4979500;28;20208;-84
2022/12/21 09:08:39;;;;;;;119.93;46.83;;;;;;;;;;4980738;28;20291;-84
2022/12/21 09:11:09;;;;;;;102.57;46.73;;;;;;;;;;4969993;28;20211;-84
2022/12/21 09:13:38;;;;;;;110.60;43.50;;;;;;;;;;4987995;28;20234;-85
2022/12/21 09:16:13;;;;;;;87.97;34.50;;;;;;;;;;4990203;28;20259;-85
2022/12/21 09:18:42;;;;;;;98.10;46.03;;;;;;;;;;4988620;28;20242;-84
2022/12/21 09:21:17;;;;;;;104.20;44.27;;;;;;;;;;4973646;28;20219;-84
2022/12/21 09:23:46;;;;;;;112.67;43.03;;;;;;;;;;4990151;28;20216;-84
2022/12/21 09:26:14;;;;;;;101.70;40.73;;;;;;;;;;4970919;28;20239;-84
2022/12/21 09:28:43;;;;;;;89.60;33.33;;;;;;;;;;4970225;28;20209;-84
2022/12/21 09:31:12;;;;;;;87.37;35.47;;;;;;;;;;4987424;28;20201;-85
2022/12/21 09:33:47;;;;;;;105.43;44.30;;;;;;;;;;4975803;28;20200;-85
2022/12/21 09:36:17;;;;;;;103.03;41.77;;;;;;;;;;4997218;28;20213;-85
2022/12/21 09:38:45;;;;;;;108.97;45.20;;;;;;;;;;4981781;28;20208;-85
2022/12/21 09:41:23;;;;;;;95.90;37.10;;;;;;;;;;4989998;28;20214;-86
2022/12/21 09:43:58;;;;;;;58.33;23.37;;;;;;;;;;4985874;28;20200;-86
2022/12/21 09:46:28;;;;;;;103.40;42.60;;;;;;;;;;4997720;28;20211;-85
2022/12/21 09:48:59;;;;;;;61.17;27.80;;;;;;;;;;4974560;28;20197;-85
2022/12/21 09:51:30;;;;;;;74.33;28.03;;;;;;;;;;4984417;28;20294;-85
2022/12/21 09:54:00;;;;;;;68.80;32.83;;;;;;;;;;4985562;28;20258;-85
2022/12/21 09:56:30;;;;;;;83.40;35.27;;;;;;;;;;4999776;28;20211;-85
2022/12/21 09:59:00;;;;;;;77.10;35.50;;;;;;;;;;4982310;28;20227;-86
2022/12/21 10:01:42;;;;;;;83.23;37.50;;;;;;;;;;4998483;28;20290;-84
2022/12/21 10:04:21;;;;;;;28.30;15.43;;;;;;;;;;4976232;28;20207;-86
2022/12/21 10:07:23;;;;;;;57.07;29.57;;;;;;;;;;4974683;28;20242;-85
2022/12/21 10:09:58;;;;;;;43.03;23.57;;;;;;;;;;4979842;28;20223;-84
2022/12/21 10:12:30;;;;;;;21.63;11.50;;;;;;;;;;4976177;28;20227;-87
2022/12/21 10:15:04;;;;;;;10.17;6.53;;;;;;;;;;4979263;28;20260;-87
2022/12/21 10:17:43;;;;;;;27.23;11.73;;;;;;;;;;4985569;28;20200;-86
2022/12/21 10:20:23;;;;;;;25.87;14.53;;;;;;;;;;4989975;28;20316;-89
2022/12/21 10:22:56;;;;;;;22.83;13.43;;;;;;;;;;4964942;28;20235;-88
2022/12/21 10:25:39;;;;;;;25.70;12.80;;;;;;;;;;4972639;28;20199;-87
2022/12/21 10:28:24;;;;;;;15.37;9.73;;;;;;;;;;4986447;28;20204;-89
2022/12/21 10:30:56;;;;;;;20.63;12.33;;;;;;;;;;4988450;28;20209;-88
2022/12/21 10:33:25;;;;;;;12.40;6.00;;;;;;;;;;4970627;28;20252;-87
2022/12/21 10:35:56;;;;;;;9.30;6.17;;;;;;;;;;4984747;28;20210;-87
2022/12/21 10:38:29;;;;;;;9.83;5.10;;;;;;;;;;4974721;28;20227;-87
2022/12/21 10:40:57;;;;;;;25.90;11.57;;;;;;;;;;4972567;28;20210;-87
2022/12/21 10:43:26;;;;;;;25.77;14.87;;;;;;;;;;4973259;28;20473;-87
2022/12/21 10:45:55;;;;;;;14.93;7.13;;;;;;;;;;4991788;28;20307;-86
2022/12/21 10:48:23;;;;;;;19.13;8.27;;;;;;;;;;4973825;28;20242;-86
2022/12/21 10:50:53;;;;;;;13.53;7.90;;;;;;;;;;4975169;28;20204;-87
2022/12/21 10:53:24;;;;;;;18.37;11.13;;;;;;;;;;4972637;28;20212;-87
2022/12/21 10:55:55;;;;;;;18.43;9.63;;;;;;;;;;4970044;28;20192;-87
2022/12/21 10:58:25;;;;;;;26.43;15.57;;;;;;;;;;4977102;28;20208;-87
2022/12/21 11:00:56;;;;;;;22.17;8.83;;;;;;;;;;4987195;28;20207;-87
2022/12/21 11:03:27;;;;;;;7.80;6.37;;;;;;;;;;4969829;28;20243;-88
2022/12/21 11:05:56;;;;;;;15.87;9.67;;;;;;;;;;4989332;28;20217;-87
2022/12/21 11:08:26;;;;;;;24.67;13.63;;;;;;;;;;4971524;28;20224;-92
2022/12/21 11:10:58;;;;;;;23.70;13.53;;;;;;;;;;4988684;28;20192;-86
2022/12/21 11:13:28;;;;;;;21.33;12.13;;;;;;;;;;4972832;28;20287;-87
2022/12/21 11:16:01;;;;;;;28.90;9.47;;;;;;;;;;4970667;28;20322;-87
2022/12/21 11:18:35;;;;;;;17.27;7.47;;;;;;;;;;4973011;28;20205;-87
2022/12/21 11:21:05;;;;;;;23.33;14.73;;;;;;;;;;4982021;28;20300;-87
2022/12/21 11:23:37;;;;;;;11.90;6.60;;;;;;;;;;4981590;28;20252;-87
2022/12/21 11:26:13;;;;;;;21.97;12.47;;;;;;;;;;4992966;28;20217;-87
2022/12/21 11:28:42;;;;;;;10.77;5.83;;;;;;;;;;5005590;28;20199;-86
2022/12/21 11:31:11;;;;;;;12.87;8.27;;;;;;;;;;4991353;28;20214;-87
2022/12/21 11:33:44;;;;;;;17.83;12.43;;;;;;;;;;4987321;28;20202;-86
2022/12/21 11:36:15;;;;;;;16.40;12.80;;;;;;;;;;5004679;28;20213;-86
2022/12/21 11:38:43;;;;;;;17.33;11.17;;;;;;;;;;4977688;28;20193;-86
2022/12/21 11:41:20;;;;;;;23.40;16.10;;;;;;;;;;4993096;28;20246;-86
2022/12/21 11:43:51;;;;;;;8.10;5.03;;;;;;;;;;4986468;28;20236;-86
2022/12/21 11:46:34;;;;;;;6.90;5.87;;;;;;;;;;4970349;28;20226;-87
2022/12/21 11:49:33;;;;;;;25.33;16.50;;;;;;;;;;4982649;28;20293;-86
2022/12/21 11:52:07;;;;;;;22.77;14.87;;;;;;;;;;4977053;28;20210;-87
2022/12/21 11:54:41;;;;;;;11.30;9.07;;;;;;;;;;4983813;28;20236;-87
2022/12/21 11:57:18;;;;;;;18.07;10.90;;;;;;;;;;4979108;28;20201;-87
2022/12/21 11:59:53;;;;;;;11.57;6.87;;;;;;;;;;5003223;28;20200;-86
2022/12/21 12:02:40;;;;;;;18.97;12.40;;;;;;;;;;4987212;28;20207;-87
2022/12/21 12:05:17;;;;;;;9.60;7.20;;;;;;;;;;4986021;28;20218;-87
2022/12/21 12:07:51;;;;;;;13.13;8.10;;;;;;;;;;4975086;28;20228;-87
2022/12/21 12:10:37;;;;;;;18.97;12.13;;;;;;;;;;4986187;28;20198;-87
2022/12/21 12:13:13;;;;;;;22.40;7.17;;;;;;;;;;4975488;28;20275;-87
2022/12/21 12:15:45;;;;;;;17.93;11.07;;;;;;;;;;4978491;28;20266;-86
2022/12/21 12:18:24;;;;;;;19.97;13.23;;;;;;;;;;4990471;28;20208;-86
2022/12/21 12:21:01;;;;;;;18.57;15.10;;;;;;;;;;5007329;28;20204;-87
2022/12/21 12:23:37;;;;;;;29.57;16.80;;;;;;;;;;4976727;28;20209;-87
2022/12/21 12:26:10;;;;;;;15.20;8.60;;;;;;;;;;4984225;28;20216;-88
2022/12/21 12:28:56;;;;;;;24.63;15.07;;;;;;;;;;4986825;28;20226;-87
2022/12/21 12:31:29;;;;;;;18.70;13.63;;;;;;;;;;4985071;28;20211;-87
2022/12/21 12:34:08;;;;;;;22.30;15.27;;;;;;;;;;4975819;28;20212;-87
2022/12/21 12:36:43;;;;;;;12.87;8.90;;;;;;;;;;4970283;28;20241;-88
2022/12/21 12:39:14;;;;;;;21.53;10.63;;;;;;;;;;4978014;28;20204;-87
2022/12/21 12:41:47;;;;;;;16.03;8.63;;;;;;;;;;4976132;28;20208;-87
2022/12/21 12:44:22;;;;;;;9.50;6.50;;;;;;;;;;4990475;28;20219;-88
2022/12/21 12:47:02;;;;;;;23.13;7.33;;;;;;;;;;4974066;28;20316;-87
2022/12/21 12:49:39;;;;;;;21.87;6.80;;;;;;;;;;4970726;28;20211;-87
2022/12/21 12:52:16;;;;;;;13.70;11.03;;;;;;;;;;4973260;28;20216;-87
2022/12/21 12:54:47;;;;;;;14.83;9.33;;;;;;;;;;4987225;28;20295;-86
2022/12/21 12:57:20;;;;;;;15.33;10.30;;;;;;;;;;4974373;28;20201;-86
2022/12/21 12:59:53;;;;;;;5.27;4.73;;;;;;;;;;4970102;28;20287;-88
2022/12/21 13:02:26;;;;;;;6.13;5.37;;;;;;;;;;4974722;28;20206;-87
2022/12/21 13:05:08;;;;;;;17.47;11.20;;;;;;;;;;4972888;28;20213;-87
2022/12/21 13:07:40;;;;;;;11.47;7.07;;;;;;;;;;4988665;28;20232;-87
2022/12/21 13:10:12;;;;;;;7.97;5.83;;;;;;;;;;4971329;28;20216;-87
2022/12/21 13:12:45;;;;;;;11.50;4.57;;;;;;;;;;4970058;28;20228;-87
2022/12/21 13:15:18;;;;;;;15.33;8.83;;;;;;;;;;4971461;28;20202;-88
2022/12/21 13:17:51;;;;;;;9.93;5.70;;;;;;;;;;4985592;28;20202;-88
2022/12/21 13:20:21;;;;;;;20.47;11.30;;;;;;;;;;4965352;28;20209;-87
2022/12/21 13:22:52;;;;;;;17.07;9.93;;;;;;;;;;4989964;28;20242;-87
2022/12/21 13:25:25;;;;;;;17.97;10.80;;;;;;;;;;4968917;28;20212;-87
2022/12/21 13:27:55;;;;;;;18.93;16.40;;;;;;;;;;4990064;28;20217;-87
2022/12/21 13:30:27;;;;;;;10.83;9.70;;;;;;;;;;4956092;28;20276;-88
2022/12/21 13:33:01;;;;;;;16.43;11.53;;;;;;;;;;4973200;28;20201;-88
2022/12/21 13:35:31;;;;;;;18.50;12.27;;;;;;;;;;4988005;28;20290;-87
2022/12/21 13:38:02;;;;;;;16.60;13.10;;;;;;;;;;4972507;28;20207;-87
2022/12/21 13:40:35;;;;;;;21.13;18.90;;;;;;;;;;4988545;28;20198;-86
2022/12/21 13:43:05;;;;;;;21.97;18.50;;;;;;;;;;4969500;28;20203;-89
2022/12/21 13:45:40;;;;;;;26.03;19.63;;;;;;;;;;4988905;28;20205;-89
2022/12/21 13:48:12;;;;;;;23.90;16.53;;;;;;;;;;4987504;28;20227;-87
2022/12/21 13:50:43;;;;;;;19.67;16.23;;;;;;;;;;4973448;28;20209;-88
2022/12/21 13:53:15;;;;;;;23.63;18.27;;;;;;;;;;4980958;28;20206;-88
2022/12/21 13:55:47;;;;;;;20.77;16.97;;;;;;;;;;4995832;28;20255;-86
2022/12/21 13:58:20;;;;;;;17.40;9.83;;;;;;;;;;4988026;28;20201;-87
2022/12/21 14:00:53;;;;;;;15.80;10.70;;;;;;;;;;4992065;28;20211;-86
2022/12/21 14:03:26;;;;;;;18.83;13.60;;;;;;;;;;4980201;28;20206;-88
2022/12/21 14:06:00;;;;;;;20.20;16.73;;;;;;;;;;4994593;28;20209;-90
2022/12/21 14:08:40;;;;;;;26.37;13.87;;;;;;;;;;4982639;28;20221;-88
2022/12/21 14:11:18;;;;;;;23.53;17.47;;;;;;;;;;4993679;28;20209;-88
2022/12/21 14:13:56;;;;;;;20.97;16.67;;;;;;;;;;4969700;28;20238;-89
2022/12/21 14:16:29;;;;;;;22.60;18.70;;;;;;;;;;4987874;28;20291;-88
2022/12/21 14:18:58;;;;;;;18.83;12.00;;;;;;;;;;4989202;28;20259;-90
2022/12/21 14:21:35;;;;;;;30.00;26.75;;;;;;;;;;4987741;28;20450;-88
2022/12/21 14:24:04;;;;;;;26.47;21.50;;;;;;;;;;4976112;28;20200;-89
2022/12/21 14:26:33;;;;;;;28.50;22.97;;;;;;;;;;4989675;28;20203;-88
2022/12/21 14:29:03;;;;;;;28.87;24.80;;;;;;;;;;4987864;28;20287;-86
2022/12/21 14:31:33;;;;;;;27.80;20.73;;;;;;;;;;4990190;28;20228;-87
2022/12/21 14:34:09;;;;;;;22.63;15.23;;;;;;;;;;4981539;28;20273;-87
2022/12/21 14:37:21;;;;;;;27.73;21.27;;;;;;;;;;4981709;28;20276;-89
2022/12/21 14:40:04;;;;;;;21.30;13.67;;;;;;;;;;4977857;28;20197;-89
2022/12/21 14:42:35;;;;;;;23.27;20.77;;;;;;;;;;4984775;28;20204;-89
2022/12/21 14:45:19;;;;;;;25.20;17.80;;;;;;;;;;4972400;28;20209;-88
2022/12/21 14:48:23;;;;;;;26.20;23.63;;;;;;;;;;4973542;28;20213;-88
2022/12/21 14:51:00;;;;;;;23.17;18.30;;;;;;;;;;4977879;28;20205;-86
2022/12/21 14:53:33;;;;;;;28.33;22.07;;;;;;;;;;4996665;28;20212;-86
2022/12/21 14:56:05;;;;;;;23.70;21.20;;;;;;;;;;4996274;28;20239;-87
2022/12/21 14:58:39;;;;;;;24.33;21.73;;;;;;;;;;4981712;28;20200;-86
2022/12/21 15:01:32;;;;;;;23.80;18.43;;;;;;;;;;5008037;28;20196;-87
2022/12/21 15:04:04;;;;;;;27.63;22.30;;;;;;;;;;4993286;28;20208;-87